Time;durP1;ratioP1;P1;durP2;ratioP2;P2;SDS_P1;SDS_P2;PMS_P1;PMS_P2;Temp;Humidity;BMP_temperature;BMP_pressure;BME280_temperature;BME280_humidity;BME280_pressure;Samples;Min_cycle;Max_cycle;Signal;HPM_P1;HPM_P2
2022/09/22 00:02:28;;;;;;;3.83;3.73;;;11.00;1.00;;;;;;6278502;28;20238;-54
2022/09/22 00:05:31;;;;;;;4.13;4.00;;;11.00;1.00;;;;;;6275619;28;20241;-55
2022/09/22 00:08:38;;;;;;;4.17;4.07;;;10.90;1.00;;;;;;6271556;28;20441;-56
2022/09/22 00:11:43;;;;;;;4.57;4.27;;;10.90;1.00;;;;;;6259183;28;20734;-54
2022/09/22 00:14:46;;;;;;;3.73;3.63;;;10.90;1.00;;;;;;6258517;28;20238;-54
2022/09/22 00:17:50;;;;;;;3.90;3.80;;;10.90;1.00;;;;;;6258426;28;20245;-54
2022/09/22 00:20:53;;;;;;;3.80;3.70;;;10.90;1.00;;;;;;6280506;28;20233;-54
2022/09/22 00:23:56;;;;;;;4.30;4.10;;;10.80;1.00;;;;;;6262630;28;20414;-55
2022/09/22 00:27:00;;;;;;;3.30;3.30;;;10.80;1.00;;;;;;6257872;28;20331;-55
2022/09/22 00:30:03;;;;;;;3.60;3.50;;;10.80;1.00;;;;;;6257526;28;20244;-54
2022/09/22 00:33:08;;;;;;;3.77;3.67;;;10.70;1.00;;;;;;6258855;28;20230;-54
2022/09/22 00:36:12;;;;;;;3.87;3.77;;;10.70;1.00;;;;;;6291141;28;20233;-54
2022/09/22 00:39:15;;;;;;;3.90;3.80;;;10.60;1.00;;;;;;6268373;28;20717;-55
2022/09/22 00:42:19;;;;;;;3.90;3.80;;;10.50;1.00;;;;;;6257046;28;20605;-54
2022/09/22 00:45:23;;;;;;;4.10;4.00;;;10.50;1.00;;;;;;6235949;28;20233;-54
2022/09/22 00:48:31;;;;;;;4.00;3.87;;;10.40;1.00;;;;;;6277092;28;20280;-54
2022/09/22 00:51:37;;;;;;;4.33;4.17;;;10.30;1.00;;;;;;6286411;28;20233;-55
2022/09/22 00:54:40;;;;;;;4.20;4.10;;;10.30;1.00;;;;;;6282147;28;20617;-54
2022/09/22 00:57:46;;;;;;;4.17;3.97;;;10.30;1.00;;;;;;6281719;28;20241;-54
2022/09/22 01:00:49;;;;;;;4.07;3.97;;;10.20;1.00;;;;;;6282346;28;20783;-54
2022/09/22 01:03:55;;;;;;;4.00;3.90;;;10.20;1.00;;;;;;6288565;28;20600;-54
2022/09/22 01:06:59;;;;;;;4.10;4.00;;;10.10;1.00;;;;;;6292432;28;20615;-54
2022/09/22 01:10:02;;;;;;;4.33;4.13;;;10.10;1.00;;;;;;6286469;28;20240;-54
2022/09/22 01:13:24;;;;;;;4.13;4.03;;;10.00;1.00;;;;;;6287010;28;20236;-55
2022/09/22 01:16:42;;;;;;;4.00;3.90;;;10.00;1.00;;;;;;6263503;28;20234;-54
2022/09/22 01:20:15;;;;;;;4.27;4.17;;;9.90;1.00;;;;;;6276198;28;20230;-54
2022/09/22 01:23:54;;;;;;;3.90;3.80;;;9.90;1.00;;;;;;6243018;28;20248;-54
2022/09/22 01:27:24;;;;;;;4.40;4.10;;;9.80;1.00;;;;;;6278446;28;20218;-54
2022/09/22 01:30:36;;;;;;;3.90;3.80;;;9.80;1.00;;;;;;6260706;28;20233;-53
2022/09/22 01:33:43;;;;;;;4.20;4.10;;;9.80;1.00;;;;;;6276194;28;20233;-54
2022/09/22 01:36:53;;;;;;;4.03;3.83;;;9.80;1.00;;;;;;6293986;28;20234;-54
2022/09/22 01:40:03;;;;;;;3.80;3.70;;;9.70;1.00;;;;;;6260715;28;20329;-52
2022/09/22 01:43:12;;;;;;;3.70;3.60;;;9.70;1.00;;;;;;6262446;28;20234;-55
2022/09/22 01:46:23;;;;;;;4.07;3.97;;;9.70;1.00;;;;;;6260544;28;20581;-54
2022/09/22 01:49:32;;;;;;;4.23;4.13;;;9.70;1.00;;;;;;6272548;28;20246;-55
2022/09/22 01:52:38;;;;;;;4.13;3.90;;;9.60;1.00;;;;;;6285906;28;20246;-54
2022/09/22 01:55:46;;;;;;;3.70;3.60;;;9.60;1.00;;;;;;6273712;28;20238;-55
2022/09/22 01:59:00;;;;;;;3.93;3.77;;;9.60;1.00;;;;;;6261057;28;20249;-54
2022/09/22 02:02:10;;;;;;;3.97;3.83;;;9.60;1.00;;;;;;6260494;28;20265;-54
2022/09/22 02:05:18;;;;;;;3.50;3.40;;;9.50;1.00;;;;;;6278948;28;20238;-54
2022/09/22 02:08:29;;;;;;;3.57;3.53;;;9.50;1.00;;;;;;6285683;28;20237;-55
2022/09/22 02:11:32;;;;;;;3.77;3.67;;;9.50;1.00;;;;;;6285472;28;20234;-54
2022/09/22 02:14:35;;;;;;;3.60;3.50;;;9.50;1.00;;;;;;6283758;28;20241;-54
2022/09/22 02:17:40;;;;;;;4.00;3.90;;;9.50;1.00;;;;;;6308754;28;20741;-54
2022/09/22 02:20:42;;;;;;;4.30;4.20;;;9.50;1.00;;;;;;6288666;28;20241;-55
2022/09/22 02:23:48;;;;;;;4.30;4.20;;;9.50;1.00;;;;;;6265417;28;20296;-53
2022/09/22 02:26:51;;;;;;;3.43;3.43;;;9.50;1.00;;;;;;6261241;28;20364;-54
2022/09/22 02:29:58;;;;;;;4.50;4.30;;;9.40;1.00;;;;;;6260584;28;20246;-55
2022/09/22 02:33:03;;;;;;;3.77;3.67;;;9.40;1.00;;;;;;6266790;28;20542;-54
2022/09/22 02:36:17;;;;;;;3.80;3.70;;;9.40;1.00;;;;;;6291951;28;20237;-54
2022/09/22 02:39:27;;;;;;;3.90;3.80;;;9.30;1.00;;;;;;6271010;28;20253;-54
2022/09/22 02:42:34;;;;;;;3.80;3.73;;;9.30;1.00;;;;;;6301205;28;20232;-54
2022/09/22 02:45:44;;;;;;;4.20;4.03;;;9.30;1.00;;;;;;6284983;28;20253;-54
2022/09/22 02:48:53;;;;;;;4.03;3.83;;;9.20;1.00;;;;;;6279386;28;20244;-55
2022/09/22 02:51:56;;;;;;;4.60;4.40;;;9.20;1.00;;;;;;6286829;28;20229;-54
2022/09/22 02:54:59;;;;;;;3.97;3.80;;;9.20;1.00;;;;;;6284808;28;20233;-54
2022/09/22 02:58:02;;;;;;;4.00;3.90;;;9.10;1.00;;;;;;6262783;28;20280;-54
2022/09/22 03:01:05;;;;;;;4.33;4.13;;;9.10;1.00;;;;;;6259536;28;20248;-54
2022/09/22 03:04:09;;;;;;;3.53;3.53;;;9.10;1.00;;;;;;6286641;28;20248;-55
2022/09/22 03:07:13;;;;;;;4.27;4.13;;;9.10;1.00;;;;;;6309038;28;20323;-55
2022/09/22 03:10:16;;;;;;;4.33;4.23;;;9.00;1.00;;;;;;6292743;28;20236;-54
2022/09/22 03:13:19;;;;;;;4.03;3.93;;;9.00;1.00;;;;;;6277427;28;20477;-55
2022/09/22 03:16:21;;;;;;;3.90;3.80;;;9.00;1.00;;;;;;6269963;28;20229;-54
2022/09/22 03:19:26;;;;;;;3.73;3.63;;;8.90;1.00;;;;;;6287257;28;20240;-54
2022/09/22 03:22:28;;;;;;;4.23;4.03;;;8.90;1.00;;;;;;6283601;28;20236;-54
2022/09/22 03:25:31;;;;;;;3.70;3.60;;;8.80;1.00;;;;;;6267494;28;20601;-55
2022/09/22 03:28:34;;;;;;;4.17;4.07;;;8.80;1.00;;;;;;6281617;28;20237;-54
2022/09/22 03:31:37;;;;;;;3.70;3.70;;;8.80;1.00;;;;;;6267879;28;20483;-55
2022/09/22 03:34:41;;;;;;;3.93;3.83;;;8.90;1.00;;;;;;6276306;28;20685;-54
2022/09/22 03:37:45;;;;;;;4.30;4.07;;;8.70;1.00;;;;;;6285025;28;20237;-54
2022/09/22 03:40:52;;;;;;;3.60;3.50;;;8.70;1.00;;;;;;6275439;28;20709;-54
2022/09/22 03:43:55;;;;;;;3.83;3.73;;;8.60;1.00;;;;;;6282278;28;20249;-54
2022/09/22 03:46:59;;;;;;;3.93;3.83;;;8.60;1.00;;;;;;6273810;28;20237;-52
2022/09/22 03:50:03;;;;;;;3.90;3.60;;;8.70;1.00;;;;;;6271520;28;20790;-55
2022/09/22 03:53:06;;;;;;;3.73;3.63;;;8.60;1.00;;;;;;6281864;28;20237;-55
2022/09/22 03:56:11;;;;;;;3.90;3.80;;;8.60;1.00;;;;;;6281533;28;20748;-53
2022/09/22 03:59:14;;;;;;;3.50;3.40;;;8.50;1.00;;;;;;6278357;28;20238;-53
2022/09/22 04:02:17;;;;;;;3.77;3.63;;;8.50;1.00;;;;;;6277950;28;20237;-54
2022/09/22 04:05:22;;;;;;;4.20;4.10;;;8.60;1.00;;;;;;6276969;28;20280;-54
2022/09/22 04:08:25;;;;;;;4.10;3.90;;;8.50;1.00;;;;;;6282078;28;20233;-54
2022/09/22 04:11:28;;;;;;;4.13;3.97;;;8.40;1.00;;;;;;6282369;28;20238;-54
2022/09/22 04:14:30;;;;;;;3.50;3.40;;;8.40;1.00;;;;;;6279837;28;20225;-55
2022/09/22 04:17:34;;;;;;;4.10;4.00;;;8.40;1.00;;;;;;6291795;28;20798;-52
2022/09/22 04:20:39;;;;;;;4.40;4.20;;;8.30;1.00;;;;;;6294978;28;20768;-54
2022/09/22 04:23:45;;;;;;;4.00;3.90;;;8.40;1.00;;;;;;6281409;28;20241;-53
2022/09/22 04:26:47;;;;;;;3.90;3.80;;;8.40;1.00;;;;;;6291223;28;20233;-53
2022/09/22 04:30:11;;;;;;;4.30;4.20;;;8.40;1.00;;;;;;6279501;28;20230;-55
2022/09/22 04:33:14;;;;;;;4.80;4.50;;;8.40;1.00;;;;;;6284001;28;20229;-54
2022/09/22 04:36:19;;;;;;;5.00;4.80;;;8.60;1.00;;;;;;6279236;28;20741;-54
2022/09/22 04:39:22;;;;;;;4.73;4.53;;;8.30;1.00;;;;;;6282049;28;20635;-53
2022/09/22 04:42:26;;;;;;;5.57;5.27;;;8.40;1.00;;;;;;6282456;28;20310;-54
2022/09/22 04:45:29;;;;;;;4.90;4.70;;;8.50;1.00;;;;;;6282168;28;20611;-54
2022/09/22 04:48:32;;;;;;;4.77;4.53;;;8.30;1.00;;;;;;6283477;28;20238;-54
2022/09/22 04:51:36;;;;;;;4.63;4.47;;;8.30;1.00;;;;;;6282313;28;20237;-54
2022/09/22 04:54:39;;;;;;;4.40;4.30;;;8.30;1.00;;;;;;6282081;28;20244;-54
2022/09/22 04:57:42;;;;;;;4.13;4.03;;;8.20;1.00;;;;;;6276791;28;20234;-53
2022/09/22 05:00:44;;;;;;;4.80;4.60;;;8.30;1.00;;;;;;6283761;28;20733;-54
2022/09/22 05:03:47;;;;;;;4.87;4.57;;;8.20;1.00;;;;;;6284723;28;20244;-54
2022/09/22 05:06:52;;;;;;;4.97;4.77;;;8.00;1.00;;;;;;6281349;28;20244;-54
2022/09/22 05:09:55;;;;;;;5.30;4.90;;;8.40;1.00;;;;;;6287267;28;20250;-53
2022/09/22 05:12:58;;;;;;;4.70;4.50;;;8.20;1.00;;;;;;6274522;28;20244;-55
2022/09/22 05:16:01;;;;;;;4.43;4.30;;;8.30;1.00;;;;;;6277569;28;20225;-54
2022/09/22 05:19:04;;;;;;;5.03;4.83;;;8.30;1.00;;;;;;6278805;28;20238;-53
2022/09/22 05:22:09;;;;;;;5.57;5.17;;;8.40;1.00;;;;;;6280925;28;20396;-53
2022/09/22 05:25:13;;;;;;;7.17;6.47;;;8.30;1.00;;;;;;6274129;28;20401;-54
2022/09/22 05:28:16;;;;;;;5.73;5.43;;;8.20;1.00;;;;;;6279265;28;20814;-55
2022/09/22 05:31:19;;;;;;;4.73;4.60;;;8.40;1.00;;;;;;6274851;28;20237;-54
2022/09/22 05:34:22;;;;;;;5.60;5.30;;;8.30;1.00;;;;;;6288705;28;20721;-54
2022/09/22 05:37:26;;;;;;;5.27;4.87;;;8.30;1.00;;;;;;6273451;28;20420;-55
2022/09/22 05:40:29;;;;;;;5.17;4.87;;;8.40;1.00;;;;;;6275673;28;20625;-54
2022/09/22 05:43:33;;;;;;;5.30;4.90;;;8.50;1.00;;;;;;6276041;28;20225;-54
2022/09/22 05:46:35;;;;;;;5.03;4.93;;;8.60;1.00;;;;;;6280545;28;20291;-54
2022/09/22 05:49:38;;;;;;;5.10;4.80;;;8.60;1.00;;;;;;6284742;28;20233;-55
2022/09/22 05:52:43;;;;;;;5.57;5.20;;;8.70;1.00;;;;;;6293518;28;20226;-55
2022/09/22 05:55:46;;;;;;;5.73;5.30;;;8.70;1.00;;;;;;6284935;28;20241;-53
2022/09/22 05:58:48;;;;;;;5.23;4.90;;;8.70;1.00;;;;;;6291521;28;20393;-54
2022/09/22 06:01:51;;;;;;;4.87;4.70;;;8.80;1.00;;;;;;6283992;28;20245;-54
2022/09/22 06:05:01;;;;;;;4.60;4.40;;;8.90;1.00;;;;;;6278508;28;20286;-52
2022/09/22 06:08:06;;;;;;;5.57;5.00;;;8.90;1.00;;;;;;6293490;28;20225;-54
2022/09/22 06:11:08;;;;;;;5.00;4.80;;;9.00;1.00;;;;;;6284316;28;20372;-53
2022/09/22 06:14:11;;;;;;;4.83;4.53;;;9.10;1.00;;;;;;6287190;28;20455;-54
2022/09/22 06:17:14;;;;;;;4.50;4.40;;;9.10;1.00;;;;;;6284227;28;20802;-54
2022/09/22 06:20:17;;;;;;;4.67;4.47;;;9.20;1.00;;;;;;6294889;28;20236;-55
2022/09/22 06:23:22;;;;;;;5.20;4.90;;;9.30;1.00;;;;;;6283657;28;20243;-55
2022/09/22 06:26:25;;;;;;;5.30;5.00;;;9.40;1.00;;;;;;6283904;28;20237;-55
2022/09/22 06:29:28;;;;;;;13.43;6.37;;;9.40;1.00;;;;;;6284402;28;20240;-54
2022/09/22 06:32:32;;;;;;;6.53;6.03;;;9.80;1.00;;;;;;6285787;28;20228;-53
2022/09/22 06:35:36;;;;;;;6.27;5.77;;;10.00;1.00;;;;;;6291199;28;20237;-53
2022/09/22 06:38:41;;;;;;;7.37;5.23;;;10.20;1.00;;;;;;6282620;28;20363;-55
2022/09/22 06:41:44;;;;;;;5.00;4.60;;;10.40;1.00;;;;;;6280626;28;20722;-53
2022/09/22 06:44:47;;;;;;;4.20;4.00;;;11.30;1.00;;;;;;6292130;28;20237;-54
2022/09/22 06:47:51;;;;;;;4.00;3.83;;;11.90;1.00;;;;;;6279072;28;20229;-54
2022/09/22 06:50:54;;;;;;;4.00;3.80;;;12.00;1.00;;;;;;6288303;28;20238;-54
2022/09/22 06:53:59;;;;;;;5.03;4.13;;;11.90;1.00;;;;;;6289230;28;20697;-53
2022/09/22 06:57:02;;;;;;;3.80;3.60;;;11.90;1.00;;;;;;6285974;28;20245;-54
2022/09/22 07:00:06;;;;;;;5.80;3.77;;;12.20;1.00;;;;;;6291741;28;20242;-53
2022/09/22 07:03:16;;;;;;;5.40;4.00;;;12.40;1.00;;;;;;6284088;28;20241;-53
2022/09/22 07:06:20;;;;;;;3.90;3.60;;;12.40;1.00;;;;;;6276592;28;20230;-53
2022/09/22 07:09:24;;;;;;;4.33;3.53;;;12.30;1.00;;;;;;6283050;28;20229;-55
2022/09/22 07:12:27;;;;;;;3.50;3.30;;;12.60;1.00;;;;;;6287367;28;20232;-55
2022/09/22 07:15:30;;;;;;;4.83;4.23;;;13.10;1.00;;;;;;6282845;28;20236;-53
2022/09/22 07:18:34;;;;;;;3.50;3.40;;;13.40;1.00;;;;;;6283654;28;20233;-54
2022/09/22 07:21:39;;;;;;;3.77;3.57;;;13.30;1.00;;;;;;6283888;28;20269;-54
2022/09/22 07:24:43;;;;;;;4.30;3.90;;;13.30;1.00;;;;;;6287755;28;20230;-55
2022/09/22 07:27:47;;;;;;;3.43;3.30;;;13.10;1.00;;;;;;6285849;28;20229;-55
2022/09/22 07:30:50;;;;;;;4.20;3.63;;;13.00;1.00;;;;;;6275370;28;20275;-54
2022/09/22 07:33:54;;;;;;;4.63;4.23;;;12.80;1.00;;;;;;6290869;28;20229;-54
2022/09/22 07:36:58;;;;;;;3.97;3.80;;;12.70;1.00;;;;;;6282845;28;20244;-54
2022/09/22 07:40:03;;;;;;;4.13;3.93;;;12.70;1.00;;;;;;6281446;28;20248;-54
2022/09/22 07:43:05;;;;;;;4.03;3.93;;;12.60;1.00;;;;;;6289571;28;20245;-54
2022/09/22 07:46:09;;;;;;;3.97;3.53;;;12.60;1.00;;;;;;6288274;28;20487;-54
2022/09/22 07:49:14;;;;;;;4.13;3.93;;;12.60;1.00;;;;;;6284564;28;20236;-54
2022/09/22 07:52:16;;;;;;;3.97;3.73;;;12.60;1.00;;;;;;6282569;28;20269;-53
2022/09/22 07:55:23;;;;;;;4.10;3.50;;;12.60;1.00;;;;;;6282476;28;20301;-55
2022/09/22 07:58:25;;;;;;;3.50;3.30;;;12.60;1.00;;;;;;6278365;28;20452;-55
2022/09/22 08:01:30;;;;;;;3.83;3.50;;;12.60;1.00;;;;;;6281697;28;20237;-54
2022/09/22 08:04:34;;;;;;;3.67;3.53;;;12.70;1.00;;;;;;6274296;28;20751;-55
2022/09/22 08:07:37;;;;;;;4.43;4.03;;;12.70;1.00;;;;;;6277905;28;20476;-53
2022/09/22 08:10:41;;;;;;;3.60;3.47;;;12.80;1.00;;;;;;6284659;28;20585;-54
2022/09/22 08:13:49;;;;;;;4.33;4.00;;;12.90;1.00;;;;;;6285907;28;20221;-54
2022/09/22 08:16:53;;;;;;;3.70;3.50;;;13.00;1.00;;;;;;6278902;28;20232;-54
2022/09/22 08:19:56;;;;;;;3.40;3.30;;;13.00;1.00;;;;;;6289581;28;20241;-54
2022/09/22 08:23:01;;;;;;;3.40;3.30;;;13.10;1.00;;;;;;6281519;28;20242;-55
2022/09/22 08:26:09;;;;;;;3.63;3.40;;;13.20;1.00;;;;;;6284970;28;20243;-54
2022/09/22 08:29:12;;;;;;;3.13;3.03;;;13.30;1.00;;;;;;6284140;28;20230;-53
2022/09/22 08:32:16;;;;;;;3.13;3.00;;;13.40;1.00;;;;;;6288032;28;20240;-54
2022/09/22 08:35:19;;;;;;;2.73;2.53;;;13.50;1.00;;;;;;6272486;28;20566;-54
2022/09/22 08:38:22;;;;;;;3.00;2.40;;;13.50;1.00;;;;;;6279019;28;20717;-54
2022/09/22 08:41:37;;;;;;;2.50;2.40;;;13.60;1.00;;;;;;6281536;28;20253;-54
2022/09/22 08:44:45;;;;;;;2.87;2.40;;;13.60;1.00;;;;;;6276520;28;20225;-54
2022/09/22 08:54:39;;;;;;;2.10;2.10;;;14.20;1.00;;;;;;6274656;28;20234;-54
2022/09/22 08:58:06;;;;;;;2.87;2.20;;;14.40;1.00;;;;;;6285110;28;20229;-54
2022/09/22 09:01:20;;;;;;;2.07;2.07;;;14.50;1.00;;;;;;6279375;28;20237;-54
2022/09/22 09:04:53;;;;;;;1.90;1.90;;;14.60;1.00;;;;;;6277632;28;20237;-53
2022/09/22 09:08:03;;;;;;;1.83;1.83;;;14.50;1.00;;;;;;6292679;28;20392;-52
2022/09/22 09:11:16;;;;;;;2.00;1.90;;;14.60;1.00;;;;;;6281825;28;20273;-55
2022/09/22 09:14:39;;;;;;;1.70;1.70;;;14.80;1.00;;;;;;6272661;28;20237;-55
2022/09/22 09:17:46;;;;;;;1.90;1.80;;;15.00;1.00;;;;;;6276781;28;20706;-54
2022/09/22 09:20:52;;;;;;;2.70;2.03;;;15.20;1.00;;;;;;6297823;28;20229;-54
2022/09/22 09:24:00;;;;;;;1.80;1.80;;;15.40;1.00;;;;;;6277468;28;20229;-53
2022/09/22 09:27:27;;;;;;;1.50;1.50;;;15.30;1.00;;;;;;6255753;28;20238;-54
2022/09/22 09:30:41;;;;;;;1.80;1.80;;;15.50;1.00;;;;;;6286430;28;20237;-54
2022/09/22 09:33:55;;;;;;;2.43;2.03;;;15.70;1.00;;;;;;6279340;28;20233;-52
2022/09/22 09:37:06;;;;;;;2.07;2.00;;;15.90;1.00;;;;;;6277904;28;20226;-53
2022/09/22 09:40:14;;;;;;;2.63;1.70;;;16.00;1.00;;;;;;6286190;28;20706;-54
2022/09/22 09:43:18;;;;;;;2.10;1.73;;;16.00;1.00;;;;;;6295553;28;20240;-53
2022/09/22 09:46:31;;;;;;;1.53;1.53;;;16.10;1.00;;;;;;6290268;28;20228;-55
2022/09/22 09:49:35;;;;;;;1.90;1.90;;;16.40;1.00;;;;;;6289777;28;20725;-54
2022/09/22 09:52:38;;;;;;;1.40;1.40;;;16.60;1.00;;;;;;6288144;28;20251;-54
2022/09/22 09:55:41;;;;;;;2.00;1.90;;;16.80;1.00;;;;;;6289555;28;20233;-54
2022/09/22 10:02:20;;;;;;;2.07;1.97;;;16.90;1.00;;;;;;6285602;28;20240;-54
2022/09/22 10:05:25;;;;;;;1.83;1.80;;;17.00;1.00;;;;;;6282808;28;20255;-55
2022/09/22 10:08:35;;;;;;;1.57;1.43;;;17.00;1.00;;;;;;6293296;28;20241;-54
2022/09/22 10:11:38;;;;;;;1.87;1.87;;;17.10;1.00;;;;;;6289150;28;20255;-54
2022/09/22 10:14:50;;;;;;;2.13;1.90;;;17.30;1.00;;;;;;6282355;28;20233;-55
2022/09/22 10:17:54;;;;;;;1.70;1.70;;;17.40;1.00;;;;;;6287370;28;20234;-54
2022/09/22 10:21:03;;;;;;;1.60;1.60;;;17.50;1.00;;;;;;6284310;28;20380;-55
2022/09/22 10:24:24;;;;;;;1.50;1.50;;;17.50;1.00;;;;;;6281662;28;20240;-53
2022/09/22 10:27:29;;;;;;;3.80;2.20;;;17.80;1.00;;;;;;6292245;28;20240;-54
2022/09/22 10:30:36;;;;;;;1.80;1.80;;;17.80;1.00;;;;;;6283313;28;20237;-54
2022/09/22 10:33:54;;;;;;;1.97;1.60;;;17.80;1.00;;;;;;6287578;28;20459;-59
2022/09/22 10:36:59;;;;;;;1.80;1.80;;;17.80;1.00;;;;;;6288537;28;20226;-53
2022/09/22 10:40:12;;;;;;;1.93;1.93;;;17.90;1.00;;;;;;6284688;28;20238;-60
2022/09/22 10:43:34;;;;;;;1.63;1.63;;;17.70;1.00;;;;;;6284721;28;20391;-54
2022/09/22 10:47:05;;;;;;;1.70;1.70;;;17.40;1.00;;;;;;6279433;28;20375;-53
2022/09/22 10:50:38;;;;;;;2.30;1.90;;;16.80;1.00;;;;;;6279273;28;20289;-54
2022/09/22 10:54:09;;;;;;;2.00;2.00;;;16.50;1.00;;;;;;6275131;28;20688;-55
2022/09/22 10:57:23;;;;;;;2.13;2.00;;;16.20;1.00;;;;;;6279209;28;20232;-55
2022/09/22 11:00:27;;;;;;;1.93;1.90;;;16.00;1.00;;;;;;6272708;28;20245;-54
2022/09/22 11:04:06;;;;;;;2.10;2.00;;;15.80;1.00;;;;;;6287545;28;20225;-54
2022/09/22 11:14:34;;;;;;;1.73;1.70;;;15.70;1.00;;;;;;6292074;28;20479;-52
2022/09/22 11:17:52;;;;;;;1.70;1.70;;;15.90;1.00;;;;;;6289605;28;20397;-55
2022/09/22 11:21:06;;;;;;;1.70;1.70;;;16.00;1.00;;;;;;6290640;28;20287;-53
2022/09/22 11:24:29;;;;;;;1.70;1.70;;;16.30;1.00;;;;;;6283784;28;20248;-55
2022/09/22 11:27:45;;;;;;;1.60;1.60;;;16.50;1.00;;;;;;6285151;28;20335;-54
2022/09/22 11:30:51;;;;;;;1.40;1.40;;;16.80;1.00;;;;;;6279358;28;20244;-54
2022/09/22 11:34:08;;;;;;;2.00;1.50;;;17.00;1.00;;;;;;6283308;28;20264;-52
2022/09/22 11:37:27;;;;;;;1.53;1.53;;;17.20;1.00;;;;;;6277896;28;20229;-53
2022/09/22 11:40:49;;;;;;;1.90;1.80;;;17.10;1.00;;;;;;6272861;28;20237;-53
2022/09/22 11:44:05;;;;;;;1.80;1.80;;;17.00;1.00;;;;;;6283938;28;20237;-52
2022/09/22 11:47:30;;;;;;;1.83;1.80;;;16.70;1.00;;;;;;6281077;28;20233;-54
2022/09/22 11:50:53;;;;;;;1.90;1.90;;;16.50;1.00;;;;;;6292057;28;20260;-54
2022/09/22 11:54:17;;;;;;;1.80;1.80;;;16.30;1.00;;;;;;6276957;28;20240;-52
2022/09/22 11:57:27;;;;;;;2.00;1.90;;;16.20;1.00;;;;;;6288123;28;20263;-54
2022/09/22 12:00:35;;;;;;;2.00;1.93;;;16.20;1.00;;;;;;6293560;28;20638;-52
2022/09/22 12:03:42;;;;;;;1.60;1.60;;;16.40;1.00;;;;;;6286699;28;20248;-55
2022/09/22 12:06:49;;;;;;;1.70;1.70;;;16.80;1.00;;;;;;6277128;28;20388;-55
2022/09/22 12:09:55;;;;;;;1.57;1.57;;;17.10;1.00;;;;;;6291672;28;20253;-53
2022/09/22 12:13:00;;;;;;;1.73;1.53;;;17.40;1.00;;;;;;6285844;28;20411;-53
2022/09/22 12:16:10;;;;;;;1.50;1.50;;;17.60;1.00;;;;;;6283212;28;20225;-53
2022/09/22 12:19:22;;;;;;;1.60;1.60;;;17.70;1.00;;;;;;6272604;28;20232;-53
2022/09/22 12:22:30;;;;;;;1.47;1.47;;;17.60;1.00;;;;;;6285399;28;20324;-53
2022/09/22 12:25:47;;;;;;;1.90;1.77;;;17.80;1.00;;;;;;6275089;28;20323;-53
2022/09/22 12:28:52;;;;;;;1.40;1.40;;;18.00;1.00;;;;;;6276636;28;20305;-53
2022/09/22 12:31:57;;;;;;;1.73;1.73;;;18.10;1.00;;;;;;6286857;28;20233;-53
2022/09/22 12:35:01;;;;;;;1.60;1.60;;;18.20;1.00;;;;;;6287070;28;20237;-53
2022/09/22 12:38:03;;;;;;;1.50;1.50;;;18.10;1.00;;;;;;6287031;28;20709;-54
2022/09/22 12:41:07;;;;;;;1.83;1.73;;;18.40;1.00;;;;;;6283088;28;20241;-54
2022/09/22 12:44:20;;;;;;;1.90;1.80;;;18.50;1.00;;;;;;6283510;28;20236;-53
2022/09/22 12:47:31;;;;;;;1.37;1.37;;;18.80;1.00;;;;;;6275207;28;20720;-55
2022/09/22 12:50:38;;;;;;;1.50;1.43;;;19.00;1.00;;;;;;6291727;28;20245;-53
2022/09/22 12:53:41;;;;;;;1.47;1.47;;;18.90;1.00;;;;;;6283255;28;20237;-54
2022/09/22 12:56:52;;;;;;;1.87;1.87;;;18.90;1.00;;;;;;6282034;28;20240;-54
2022/09/22 13:00:27;;;;;;;1.80;1.70;;;19.10;1.00;;;;;;6288413;28;20741;-53
2022/09/22 13:03:47;;;;;;;1.80;1.80;;;19.10;1.00;;;;;;6294338;28;20229;-54
2022/09/22 13:06:58;;;;;;;1.63;1.63;;;19.20;1.00;;;;;;6284050;28;20240;-54
2022/09/22 13:10:38;;;;;;;2.03;1.90;;;19.30;1.00;;;;;;6292884;28;20249;-54
2022/09/22 13:13:43;;;;;;;1.33;1.33;;;19.10;1.00;;;;;;6282928;28;20226;-53
2022/09/22 13:16:48;;;;;;;1.57;1.57;;;19.00;1.00;;;;;;6293463;28;20240;-54
2022/09/22 13:19:55;;;;;;;1.33;1.33;;;19.10;1.00;;;;;;6287620;28;20236;-53
2022/09/22 13:23:04;;;;;;;1.80;1.80;;;19.20;1.00;;;;;;6284411;28;20599;-54
2022/09/22 13:26:11;;;;;;;1.70;1.70;;;19.40;1.00;;;;;;6289491;28;20315;-55
2022/09/22 13:29:16;;;;;;;1.63;1.63;;;19.20;1.00;;;;;;6285610;28;20228;-55
2022/09/22 13:32:25;;;;;;;1.60;1.60;;;19.20;1.00;;;;;;6289218;28;20226;-53
2022/09/22 13:35:31;;;;;;;3.10;1.83;;;19.10;1.00;;;;;;6295990;28;20237;-55
2022/09/22 13:38:38;;;;;;;1.83;1.83;;;18.90;1.00;;;;;;6285613;28;20817;-54
2022/09/22 13:41:46;;;;;;;1.70;1.67;;;18.60;1.00;;;;;;6282107;28;20237;-54
2022/09/22 13:44:56;;;;;;;1.43;1.43;;;18.30;1.00;;;;;;6289722;28;20229;-54
2022/09/22 13:48:07;;;;;;;1.40;1.40;;;18.10;1.00;;;;;;6290937;28;20237;-54
2022/09/22 13:51:14;;;;;;;1.50;1.50;;;17.90;1.00;;;;;;6299956;28;20636;-53
2022/09/22 13:54:22;;;;;;;1.50;1.50;;;17.70;1.00;;;;;;6284440;28;20234;-53
2022/09/22 13:57:29;;;;;;;1.90;1.90;;;17.50;1.00;;;;;;6284314;28;20237;-52
2022/09/22 14:00:41;;;;;;;2.17;2.17;;;17.30;1.00;;;;;;6262186;28;20237;-53
2022/09/22 14:04:24;;;;;;;3.30;1.83;;;17.00;1.00;;;;;;6285923;28;20496;-54
2022/09/22 14:07:30;;;;;;;4.07;1.97;;;16.90;1.00;;;;;;6292294;28;20238;-54
2022/09/22 14:10:33;;;;;;;2.00;2.00;;;16.70;1.00;;;;;;6280863;28;20245;-54
2022/09/22 14:13:41;;;;;;;1.97;1.90;;;16.60;1.00;;;;;;6287167;28;20241;-53
2022/09/22 14:16:48;;;;;;;1.70;1.70;;;16.50;1.00;;;;;;6294296;28;20472;-55
2022/09/22 14:19:57;;;;;;;1.87;1.73;;;16.30;1.00;;;;;;6296529;28;20225;-54
2022/09/22 14:23:00;;;;;;;1.50;1.50;;;16.20;1.00;;;;;;6291272;28;20250;-53
2022/09/22 14:26:26;;;;;;;2.10;2.00;;;16.10;1.00;;;;;;6287050;28;20233;-54
2022/09/22 14:29:31;;;;;;;1.67;1.67;;;16.00;1.00;;;;;;6295104;28;20225;-52
2022/09/22 14:32:36;;;;;;;1.70;1.70;;;16.00;1.00;;;;;;6288508;28;20241;-54
2022/09/22 14:35:41;;;;;;;1.70;1.70;;;16.10;1.00;;;;;;6290249;28;20233;-54
2022/09/22 14:38:44;;;;;;;1.73;1.73;;;16.00;1.00;;;;;;6287679;28;20233;-54
2022/09/22 14:42:10;;;;;;;1.80;1.70;;;16.00;1.00;;;;;;6275932;28;20238;-53
2022/09/22 14:45:19;;;;;;;1.80;1.77;;;16.10;1.00;;;;;;6294732;28;20243;-55
2022/09/22 14:48:28;;;;;;;1.40;1.40;;;16.30;1.00;;;;;;6282019;28;20256;-54
2022/09/22 14:51:33;;;;;;;1.67;1.67;;;16.50;1.00;;;;;;6297115;28;20236;-54
2022/09/22 14:54:39;;;;;;;1.80;1.80;;;16.70;1.00;;;;;;6289768;28;20226;-54
2022/09/22 14:57:46;;;;;;;1.50;1.50;;;16.90;1.00;;;;;;6280475;28;20829;-55
2022/09/22 15:04:21;;;;;;;1.70;1.70;;;17.20;1.00;;;;;;6286138;28;20694;-55
2022/09/22 15:07:28;;;;;;;2.00;2.00;;;17.30;1.00;;;;;;6295540;28;20236;-52
2022/09/22 15:10:34;;;;;;;1.90;1.90;;;17.50;1.00;;;;;;6281967;28;20237;-54
2022/09/22 15:13:39;;;;;;;1.40;1.40;;;17.50;1.00;;;;;;6291427;28;20325;-55
2022/09/22 15:16:42;;;;;;;1.50;1.50;;;17.50;1.00;;;;;;6278528;28;20244;-55
2022/09/22 15:19:50;;;;;;;1.70;1.60;;;17.40;1.00;;;;;;6299414;28;20602;-54
2022/09/22 15:22:54;;;;;;;1.50;1.50;;;17.30;1.00;;;;;;6284657;28;20244;-52
2022/09/22 15:26:02;;;;;;;1.53;1.47;;;17.20;1.00;;;;;;6283718;28;20244;-54
2022/09/22 15:29:05;;;;;;;1.57;1.50;;;17.10;1.00;;;;;;6288065;28;20224;-53
2022/09/22 15:32:08;;;;;;;1.50;1.50;;;17.10;1.00;;;;;;6293013;28;20240;-55
2022/09/22 15:35:11;;;;;;;1.40;1.40;;;17.00;1.00;;;;;;6284334;28;20233;-54
2022/09/22 15:38:18;;;;;;;1.67;1.67;;;16.90;1.00;;;;;;6284105;28;20747;-54
2022/09/22 15:41:21;;;;;;;1.43;1.43;;;16.80;1.00;;;;;;6285715;28;20237;-54
2022/09/22 15:44:24;;;;;;;1.70;1.70;;;16.70;1.00;;;;;;6281865;28;20599;-54
2022/09/22 15:47:27;;;;;;;1.60;1.60;;;16.70;1.00;;;;;;6281462;28;20233;-54
2022/09/22 15:50:31;;;;;;;1.67;1.67;;;16.50;1.00;;;;;;6300640;28;20640;-54
2022/09/22 15:53:36;;;;;;;1.50;1.40;;;16.50;1.00;;;;;;6283968;28;20229;-53
2022/09/22 15:56:40;;;;;;;1.40;1.40;;;16.50;1.00;;;;;;6287230;28;20589;-52
2022/09/22 15:59:43;;;;;;;1.20;1.20;;;16.40;1.00;;;;;;6283289;28;20266;-53
2022/09/22 16:02:46;;;;;;;1.53;1.53;;;16.30;1.00;;;;;;6288723;28;20237;-54
2022/09/22 16:05:55;;;;;;;1.50;1.50;;;16.20;1.00;;;;;;6283088;28;20260;-54
2022/09/22 16:09:01;;;;;;;1.60;1.60;;;16.20;1.00;;;;;;6288557;28;20710;-54
2022/09/22 16:12:07;;;;;;;1.73;1.70;;;16.10;1.00;;;;;;6284131;28;20243;-54
2022/09/22 16:15:13;;;;;;;1.60;1.60;;;16.00;1.00;;;;;;6292317;28;20233;-54
2022/09/22 16:18:16;;;;;;;1.60;1.60;;;15.90;1.00;;;;;;6293304;28;20233;-54
2022/09/22 16:21:22;;;;;;;1.50;1.50;;;15.80;1.00;;;;;;6287618;28;20234;-54
2022/09/22 16:24:27;;;;;;;1.40;1.40;;;15.70;1.00;;;;;;6276254;28;20735;-54
2022/09/22 16:27:30;;;;;;;1.80;1.80;;;15.60;1.00;;;;;;6289444;28;20252;-55
2022/09/22 16:30:33;;;;;;;1.50;1.50;;;15.60;1.00;;;;;;6282114;28;20253;-54
2022/09/22 16:33:36;;;;;;;1.93;1.83;;;15.50;1.00;;;;;;6276198;28;20322;-55
2022/09/22 16:36:40;;;;;;;1.60;1.47;;;15.40;1.00;;;;;;6283954;28;20240;-55
2022/09/22 16:39:44;;;;;;;2.47;1.77;;;15.40;1.00;;;;;;6281815;28;20244;-53
2022/09/22 16:42:47;;;;;;;1.60;1.60;;;15.30;1.00;;;;;;6277646;28;20606;-54
2022/09/22 16:49:14;;;;;;;1.67;1.67;;;15.10;1.00;;;;;;6283835;28;20236;-55
2022/09/22 16:52:18;;;;;;;1.67;1.67;;;15.00;1.00;;;;;;6283327;28;20531;-54
2022/09/22 16:55:23;;;;;;;1.70;1.70;;;14.90;1.00;;;;;;6280417;28;20748;-54
2022/09/22 16:58:26;;;;;;;1.60;1.60;;;14.80;1.00;;;;;;6274799;28;20240;-54